createdAt,value
2023-01-11T00:02:55.369Z,21.94
2023-01-11T00:12:58.569Z,21.94
2023-01-11T00:23:01.733Z,21.97
2023-01-11T00:33:04.925Z,21.94
2023-01-11T00:43:08.066Z,21.95
2023-01-11T00:53:11.262Z,21.95
2023-01-11T01:03:14.405Z,21.97
2023-01-11T01:13:17.604Z,21.97
2023-01-11T01:23:20.745Z,21.95
2023-01-11T01:33:23.929Z,21.95
2023-01-11T01:43:27.063Z,21.95
2023-01-11T01:53:30.325Z,21.94
2023-01-11T02:03:33.464Z,21.95
2023-01-11T02:13:36.663Z,21.94
2023-01-11T02:23:39.842Z,21.95
2023-01-11T02:33:43.034Z,21.95
2023-01-11T02:43:46.184Z,21.94
2023-01-11T02:53:49.397Z,21.95
2023-01-11T03:03:52.547Z,21.94
2023-01-11T03:13:55.730Z,21.95
2023-01-11T03:23:58.896Z,21.94
2023-01-11T03:34:02.083Z,21.95
2023-01-11T03:44:05.246Z,21.97
2023-01-11T03:54:08.442Z,21.94
2023-01-11T04:04:11.753Z,21.94
2023-01-11T04:14:14.969Z,21.94
2023-01-11T04:24:18.113Z,21.95
2023-01-11T04:34:21.323Z,21.94
2023-01-11T04:44:24.462Z,21.95
2023-01-11T04:54:27.652Z,21.95
2023-01-11T05:04:30.813Z,21.95
2023-01-11T05:14:34.013Z,21.94
2023-01-11T05:24:37.148Z,21.94
2023-01-11T05:34:40.363Z,21.94
2023-01-11T05:44:43.500Z,21.94
2023-01-11T05:54:46.689Z,21.92
2023-01-11T06:04:49.831Z,21.92
2023-01-11T06:14:53.149Z,21.94
2023-01-11T06:35:48.111Z,21.92
2023-01-11T06:45:51.372Z,21.92
2023-01-11T06:55:54.596Z,21.94
2023-01-11T07:05:57.757Z,21.92
2023-01-11T07:16:00.994Z,21.90
2023-01-11T07:26:04.252Z,21.91
2023-01-11T07:36:07.447Z,21.92
2023-01-11T07:46:10.712Z,21.92
2023-01-11T07:56:13.945Z,21.91
2023-01-11T08:06:17.136Z,21.91
2023-01-11T08:16:20.380Z,21.91
2023-01-11T08:26:23.554Z,21.92
2023-01-11T08:36:26.756Z,21.92
2023-01-11T08:46:30.000Z,21.90
2023-01-11T08:56:33.269Z,21.91
2023-01-11T09:06:36.417Z,21.91
2023-01-11T09:16:39.634Z,21.92
2023-01-11T09:26:42.866Z,21.90
2023-01-11T09:36:46.070Z,21.90
2023-01-11T09:46:49.297Z,21.90
2023-01-11T09:56:52.526Z,21.91
2023-01-11T10:06:55.734Z,21.91
2023-01-11T10:18:29.211Z,21.91
2023-01-11T10:27:02.889Z,21.91
2023-01-11T10:37:06.096Z,21.91
2023-01-11T10:47:09.237Z,21.92
2023-01-11T10:57:12.431Z,21.92
2023-01-11T11:07:15.583Z,21.92
2023-01-11T11:17:18.757Z,21.92
2023-01-11T11:27:21.899Z,21.92
2023-01-11T11:37:25.129Z,21.94
2023-01-11T11:47:28.273Z,21.95
2023-01-11T11:57:31.468Z,21.97
2023-01-11T12:07:40.492Z,21.97
2023-01-11T12:17:38.583Z,21.99
2023-01-11T12:27:41.749Z,21.98
2023-01-11T12:37:44.933Z,21.99
2023-01-11T12:47:48.079Z,21.98
2023-01-11T12:57:51.414Z,21.98
2023-01-11T13:07:54.548Z,21.99
2023-01-11T13:17:57.731Z,22.01
2023-01-11T13:28:00.872Z,22.01
2023-01-11T13:38:04.080Z,22.01
2023-01-11T13:48:07.221Z,22.01
2023-01-11T13:58:10.404Z,22.02
2023-01-11T14:08:13.575Z,22.02
2023-01-11T14:18:16.774Z,22.02
2023-01-11T14:28:19.967Z,22.02
2023-01-11T14:38:23.164Z,22.02
2023-01-11T14:48:26.361Z,22.04
2023-01-11T14:58:29.610Z,22.02
2023-01-11T15:08:32.758Z,22.02
2023-01-11T15:18:35.958Z,22.07
2023-01-11T15:28:39.135Z,22.13
2023-01-11T15:38:42.338Z,22.14
2023-01-11T15:48:45.530Z,22.20
2023-01-11T15:58:48.739Z,22.20
2023-01-11T16:08:51.891Z,22.20
2023-01-11T16:18:55.091Z,22.22
2023-01-11T16:28:58.243Z,22.22
2023-01-11T16:39:01.510Z,22.23
2023-01-11T16:49:04.658Z,22.25
2023-01-11T16:59:07.913Z,22.25
2023-01-11T17:09:16.468Z,22.27
2023-01-11T17:19:15.052Z,22.28
2023-01-11T17:29:18.207Z,22.28
2023-01-11T17:39:21.393Z,22.31
2023-01-11T17:49:24.545Z,22.32
2023-01-11T17:59:27.743Z,22.32
2023-01-11T18:09:30.878Z,22.31
2023-01-11T18:19:34.068Z,22.29
2023-01-11T18:29:37.241Z,22.29
2023-01-11T18:39:40.407Z,22.28
2023-01-11T18:49:43.564Z,22.27
2023-01-11T18:59:46.783Z,22.28
2023-01-11T19:09:49.965Z,22.27
2023-01-11T19:19:53.250Z,22.27
2023-01-11T19:29:56.416Z,22.27
2023-01-11T19:39:59.604Z,22.25
2023-01-11T19:50:02.769Z,22.25
2023-01-11T20:00:05.966Z,22.23
2023-01-11T20:10:09.119Z,22.22
2023-01-11T20:20:14.524Z,22.23
2023-01-11T20:30:15.693Z,22.22
2023-01-11T20:40:18.943Z,22.20
2023-01-11T20:50:22.086Z,22.20
2023-01-11T21:00:25.271Z,22.20
2023-01-11T21:10:28.436Z,22.20
2023-01-11T21:20:31.625Z,22.19
2023-01-11T21:30:34.762Z,22.19
2023-01-11T21:40:37.949Z,22.19
2023-01-11T21:50:41.094Z,22.20
2023-01-11T22:00:44.374Z,22.17
2023-01-11T22:10:47.552Z,22.17
2023-01-11T22:20:50.762Z,22.16
2023-01-11T22:30:53.901Z,22.17
2023-01-11T22:40:57.096Z,22.16
2023-01-11T22:51:00.236Z,22.16
2023-01-11T23:01:03.423Z,22.16
2023-01-11T23:11:06.576Z,22.14
2023-01-11T23:21:09.778Z,22.14
2023-01-11T23:31:13.004Z,22.13
2023-01-11T23:41:16.181Z,22.13
2023-01-11T23:51:19.321Z,22.12
